Time;durP1;ratioP1;P1;durP2;ratioP2;P2;SDS_P1;SDS_P2;PMS_P1;PMS_P2;Temp;Humidity;BMP_temperature;BMP_pressure;BME280_temperature;BME280_humidity;BME280_pressure;Samples;Min_cycle;Max_cycle;Signal;HPM_P1;HPM_P2
2022/04/29 00:00:56;;;;;;;11.80;9.50;;;15.90;58.30;;;;;;4915531;29;20490;-82
2022/04/29 00:03:24;;;;;;;10.43;8.90;;;15.90;59.00;;;;;;4910955;29;20593;-82
2022/04/29 00:05:53;;;;;;;15.93;9.30;;;15.90;59.30;;;;;;4915171;29;20458;-85
2022/04/29 00:08:20;;;;;;;10.33;9.20;;;15.80;59.40;;;;;;4922214;29;20589;-83
2022/04/29 00:10:47;;;;;;;11.20;9.40;;;15.80;60.00;;;;;;4921298;29;20511;-85
2022/04/29 00:13:15;;;;;;;12.97;9.00;;;15.90;60.40;;;;;;4914323;29;20481;-82
2022/04/29 00:15:42;;;;;;;9.97;8.90;;;15.90;60.70;;;;;;4914061;29;20524;-81
2022/04/29 00:18:09;;;;;;;12.27;9.07;;;15.80;60.90;;;;;;4929124;29;20452;-85
2022/04/29 00:20:35;;;;;;;12.23;9.40;;;15.60;61.40;;;;;;4915004;29;20513;-82
2022/04/29 00:23:02;;;;;;;14.63;9.43;;;15.60;62.10;;;;;;4916081;29;20473;-81
2022/04/29 00:25:29;;;;;;;12.43;10.53;;;15.70;62.70;;;;;;4915457;29;20816;-82
2022/04/29 00:27:57;;;;;;;12.53;9.50;;;15.70;62.60;;;;;;4917517;29;20483;-84
2022/04/29 00:30:25;;;;;;;10.77;8.97;;;15.70;63.20;;;;;;4913903;29;20469;-85
2022/04/29 00:32:52;;;;;;;13.90;9.80;;;15.70;63.80;;;;;;4910714;29;20460;-83
2022/04/29 00:35:19;;;;;;;12.27;10.10;;;15.70;64.50;;;;;;4914488;29;20572;-82
2022/04/29 00:37:51;;;;;;;12.90;10.20;;;15.70;64.80;;;;;;4915221;29;20685;-84
2022/04/29 00:40:24;;;;;;;13.83;9.27;;;15.70;64.90;;;;;;4914607;29;20462;-85
2022/04/29 00:42:52;;;;;;;14.17;10.20;;;15.70;65.10;;;;;;4917094;29;20457;-83
2022/04/29 00:45:21;;;;;;;11.50;9.80;;;15.60;64.80;;;;;;4918901;29;20604;-82
2022/04/29 00:47:49;;;;;;;13.67;9.67;;;15.50;64.40;;;;;;4918366;29;20487;-84
2022/04/29 00:50:24;;;;;;;12.77;9.07;;;15.50;64.30;;;;;;4916286;29;20489;-85
2022/04/29 00:52:55;;;;;;;11.87;9.03;;;15.40;65.80;;;;;;4918503;29;20454;-82
2022/04/29 00:55:23;;;;;;;11.70;10.50;;;15.50;68.30;;;;;;4920805;29;20454;-82
2022/04/29 00:58:06;;;;;;;12.90;10.93;;;15.70;70.70;;;;;;4919970;29;20466;-85
2022/04/29 01:00:35;;;;;;;11.53;10.27;;;15.50;72.20;;;;;;4920671;29;20489;-83
2022/04/29 01:03:04;;;;;;;16.87;10.03;;;15.40;74.40;;;;;;4922768;29;20533;-83
2022/04/29 01:05:33;;;;;;;15.30;10.23;;;15.30;75.20;;;;;;4921477;29;20446;-81
2022/04/29 01:08:00;;;;;;;14.53;10.97;;;15.40;75.80;;;;;;4921671;29;20489;-85
2022/04/29 01:10:26;;;;;;;13.30;10.40;;;15.50;77.00;;;;;;4918877;29;20469;-84
2022/04/29 01:12:57;;;;;;;15.37;11.63;;;15.40;76.50;;;;;;4917534;29;21715;-82
2022/04/29 01:15:25;;;;;;;14.37;11.10;;;15.60;76.40;;;;;;4918050;29;21141;-85
2022/04/29 01:18:06;;;;;;;12.80;9.20;;;15.40;76.20;;;;;;4916572;29;22188;-84
2022/04/29 01:20:34;;;;;;;14.53;10.60;;;15.30;77.10;;;;;;4915423;29;20474;-84
2022/04/29 01:23:05;;;;;;;13.53;10.83;;;15.30;77.50;;;;;;4919740;29;20446;-82
2022/04/29 01:25:35;;;;;;;17.70;11.80;;;15.40;76.80;;;;;;4919182;29;20458;-84
2022/04/29 01:28:02;;;;;;;17.47;10.73;;;15.30;76.80;;;;;;4914086;29;20507;-85
2022/04/29 01:30:29;;;;;;;13.60;10.20;;;15.20;77.40;;;;;;4932963;29;20516;-83
2022/04/29 01:32:56;;;;;;;11.70;9.37;;;15.00;77.70;;;;;;4917632;29;20458;-85
2022/04/29 01:35:23;;;;;;;13.20;9.70;;;14.90;78.30;;;;;;4917666;29;20462;-84
2022/04/29 01:37:50;;;;;;;13.00;10.03;;;14.90;79.00;;;;;;4929169;29;20473;-85
2022/04/29 01:40:17;;;;;;;18.33;11.53;;;14.90;79.60;;;;;;4920951;29;20853;-87
2022/04/29 01:42:44;;;;;;;15.03;10.63;;;14.80;80.60;;;;;;4917086;29;20468;-85
2022/04/29 01:45:12;;;;;;;12.90;10.77;;;14.80;81.20;;;;;;4913496;29;20474;-84
2022/04/29 01:47:39;;;;;;;11.80;9.80;;;14.90;80.70;;;;;;4913279;29;20946;-83
2022/04/29 01:50:05;;;;;;;14.03;10.60;;;14.80;80.90;;;;;;4914444;29;20463;-85
2022/04/29 01:52:32;;;;;;;14.77;11.30;;;14.70;82.70;;;;;;4913602;29;20450;-84
2022/04/29 01:54:59;;;;;;;13.43;11.17;;;14.70;82.70;;;;;;4921475;29;20483;-86
2022/04/29 01:57:26;;;;;;;11.60;9.40;;;14.70;83.00;;;;;;4922439;29;20458;-84
2022/04/29 01:59:52;;;;;;;12.37;10.00;;;14.60;83.80;;;;;;4919542;29;20462;-82
2022/04/29 02:02:21;;;;;;;16.27;10.20;;;14.50;84.10;;;;;;4917328;29;21070;-84
2022/04/29 02:04:48;;;;;;;14.70;10.90;;;14.60;84.00;;;;;;4915847;29;20462;-85
2022/04/29 02:07:14;;;;;;;13.20;10.20;;;14.50;83.40;;;;;;4916205;29;20497;-85
2022/04/29 02:09:41;;;;;;;11.33;10.17;;;14.50;82.30;;;;;;4913981;29;20455;-84
2022/04/29 02:12:09;;;;;;;12.83;9.90;;;14.50;82.20;;;;;;4915074;29;20533;-87
2022/04/29 02:14:39;;;;;;;10.50;9.40;;;14.50;82.50;;;;;;4922030;29;20457;-84
2022/04/29 02:17:07;;;;;;;11.53;10.00;;;14.50;82.90;;;;;;4914120;29;20670;-83
2022/04/29 02:19:36;;;;;;;12.47;10.23;;;14.50;83.60;;;;;;4915317;29;20467;-82
2022/04/29 02:22:04;;;;;;;16.37;11.07;;;14.50;84.90;;;;;;4922989;29;20485;-85
2022/04/29 02:24:31;;;;;;;17.70;11.87;;;14.50;84.80;;;;;;4917187;29;20468;-83
2022/04/29 02:27:02;;;;;;;14.20;10.33;;;14.50;83.40;;;;;;4929737;29;20482;-85
2022/04/29 02:29:29;;;;;;;16.23;10.43;;;14.40;82.30;;;;;;4911379;29;20479;-85
2022/04/29 02:31:59;;;;;;;13.27;10.27;;;14.50;81.40;;;;;;4932590;29;20487;-84
2022/04/29 02:34:26;;;;;;;13.27;9.77;;;14.60;81.20;;;;;;4914195;29;20458;-84
2022/04/29 02:36:53;;;;;;;13.93;10.70;;;14.50;80.70;;;;;;4928031;29;20477;-83
2022/04/29 02:39:20;;;;;;;12.87;10.20;;;14.30;81.10;;;;;;4913728;29;20494;-85
2022/04/29 02:41:47;;;;;;;11.10;9.63;;;14.30;82.00;;;;;;4918534;29;20470;-85
2022/04/29 02:44:14;;;;;;;10.67;9.10;;;14.30;80.60;;;;;;4916473;29;21062;-83
2022/04/29 02:49:26;;;;;;;12.60;9.93;;;14.30;81.00;;;;;;4917418;29;20478;-85
2022/04/29 02:51:53;;;;;;;14.67;10.10;;;14.10;81.50;;;;;;4912017;29;20492;-82
2022/04/29 02:54:20;;;;;;;12.50;10.00;;;14.10;82.00;;;;;;4916437;29;20469;-83
2022/04/29 02:56:50;;;;;;;18.20;11.30;;;14.00;82.10;;;;;;4918848;29;20467;-82
2022/04/29 02:59:18;;;;;;;12.33;10.40;;;14.00;82.60;;;;;;4916860;29;20830;-84
2022/04/29 03:01:45;;;;;;;11.70;10.50;;;14.00;83.90;;;;;;4915380;29;21031;-84
2022/04/29 03:04:12;;;;;;;12.87;9.57;;;13.90;84.30;;;;;;4914410;29;20466;-85
2022/04/29 03:06:39;;;;;;;16.67;12.00;;;13.90;84.70;;;;;;4916128;29;20526;-82
2022/04/29 03:09:06;;;;;;;14.10;10.17;;;13.80;85.10;;;;;;4913281;29;20482;-83
2022/04/29 03:11:33;;;;;;;11.83;9.87;;;13.80;85.80;;;;;;4914312;29;21010;-84
2022/04/29 03:13:59;;;;;;;12.00;10.67;;;13.80;86.10;;;;;;4902946;29;20490;-85
2022/04/29 03:16:26;;;;;;;11.47;9.77;;;13.80;86.10;;;;;;4914192;29;20462;-84
2022/04/29 03:18:53;;;;;;;10.87;9.57;;;13.80;86.50;;;;;;4911073;29;20712;-80
2022/04/29 03:21:20;;;;;;;11.47;10.27;;;13.90;86.90;;;;;;4914606;29;21126;-83
2022/04/29 03:23:48;;;;;;;11.47;10.07;;;13.80;87.00;;;;;;4915489;29;20466;-83
2022/04/29 03:26:15;;;;;;;11.30;10.10;;;14.00;87.80;;;;;;4916876;29;20462;-85
2022/04/29 03:28:42;;;;;;;11.80;10.57;;;14.00;87.70;;;;;;4915227;29;20483;-85
2022/04/29 03:31:09;;;;;;;11.83;10.17;;;13.90;88.20;;;;;;4920610;29;20482;-86
2022/04/29 03:33:36;;;;;;;18.30;11.67;;;13.90;89.20;;;;;;4930539;29;20472;-84
2022/04/29 03:36:03;;;;;;;12.90;9.73;;;14.10;88.20;;;;;;4914210;29;20475;-84
2022/04/29 03:38:30;;;;;;;14.33;10.77;;;14.10;87.00;;;;;;4918604;29;20486;-83
2022/04/29 03:40:57;;;;;;;11.90;10.57;;;14.00;87.30;;;;;;4918372;29;20486;-83
2022/04/29 03:43:24;;;;;;;12.53;10.20;;;14.30;86.00;;;;;;4918212;29;20473;-84
2022/04/29 03:45:51;;;;;;;13.90;10.57;;;14.20;85.50;;;;;;4911325;29;20465;-85
2022/04/29 03:48:18;;;;;;;12.20;9.83;;;14.20;85.20;;;;;;4911999;29;20800;-85
2022/04/29 03:50:44;;;;;;;15.20;9.93;;;14.00;85.50;;;;;;4920190;29;20467;-84
2022/04/29 03:53:11;;;;;;;13.67;9.80;;;14.00;85.30;;;;;;4928712;29;20449;-84
2022/04/29 03:55:38;;;;;;;16.87;10.53;;;13.90;85.80;;;;;;4926746;29;20454;-84
2022/04/29 03:58:05;;;;;;;15.50;10.90;;;13.70;86.70;;;;;;4927255;29;20522;-84
2022/04/29 04:00:33;;;;;;;11.37;9.50;;;13.70;86.70;;;;;;4917531;29;20478;-85
2022/04/29 04:03:05;;;;;;;12.70;10.50;;;13.70;87.40;;;;;;4914813;29;20558;-83
2022/04/29 04:05:32;;;;;;;12.70;9.93;;;13.80;87.40;;;;;;4922481;29;20486;-85
2022/04/29 04:07:59;;;;;;;14.63;9.90;;;13.90;86.70;;;;;;4929903;29;20462;-83
2022/04/29 04:10:26;;;;;;;12.97;10.60;;;13.80;87.00;;;;;;4923826;29;20515;-86
2022/04/29 04:12:52;;;;;;;11.50;10.30;;;13.90;87.60;;;;;;4931045;29;20997;-84
2022/04/29 04:15:20;;;;;;;13.17;9.80;;;13.80;86.10;;;;;;4920976;29;20517;-80
2022/04/29 04:17:49;;;;;;;12.97;10.50;;;13.70;86.40;;;;;;4922993;29;20493;-85
2022/04/29 04:20:16;;;;;;;13.20;10.40;;;13.60;87.20;;;;;;4916344;29;20505;-83
2022/04/29 04:22:43;;;;;;;11.13;9.80;;;13.50;88.30;;;;;;4923638;29;20454;-84
2022/04/29 04:25:12;;;;;;;11.60;9.63;;;13.50;89.30;;;;;;4929715;29;20521;-84
2022/04/29 04:27:40;;;;;;;12.73;10.73;;;13.60;90.10;;;;;;4946879;29;20443;-85
2022/04/29 04:30:08;;;;;;;12.87;9.10;;;13.60;90.40;;;;;;4929115;29;20474;-84
2022/04/29 04:32:37;;;;;;;13.53;10.20;;;13.70;90.30;;;;;;4931732;29;21659;-84
2022/04/29 04:35:05;;;;;;;11.50;10.27;;;13.70;90.50;;;;;;4935473;29;20486;-86
2022/04/29 04:37:33;;;;;;;11.50;10.40;;;13.70;90.60;;;;;;4921572;29;20462;-84
2022/04/29 04:40:00;;;;;;;16.03;10.47;;;13.60;90.60;;;;;;4920499;29;20473;-84
2022/04/29 04:42:28;;;;;;;13.70;10.40;;;13.80;90.30;;;;;;4922232;29;20470;-83
2022/04/29 04:44:55;;;;;;;15.23;12.07;;;13.60;90.20;;;;;;4915699;29;21027;-84
2022/04/29 04:47:22;;;;;;;11.47;9.67;;;13.70;90.30;;;;;;4941836;29;20453;-84
2022/04/29 04:49:49;;;;;;;13.87;11.40;;;13.70;90.30;;;;;;4922885;29;20505;-84
2022/04/29 04:52:15;;;;;;;11.30;9.77;;;13.90;89.80;;;;;;4890248;29;20497;-84
2022/04/29 04:54:42;;;;;;;15.53;12.00;;;13.90;88.90;;;;;;4926214;29;20555;-82
2022/04/29 04:57:09;;;;;;;14.83;10.53;;;14.00;88.20;;;;;;4919831;29;20478;-83
2022/04/29 04:59:36;;;;;;;14.70;10.30;;;14.00;87.80;;;;;;4922771;29;20490;-83
2022/04/29 05:02:03;;;;;;;12.30;10.40;;;14.00;88.20;;;;;;4922454;29;20478;-82
2022/04/29 05:04:30;;;;;;;10.30;9.33;;;13.80;89.00;;;;;;4930751;29;20455;-82
2022/04/29 05:06:56;;;;;;;11.90;9.80;;;13.60;89.40;;;;;;4920237;29;20464;-82
2022/04/29 05:09:23;;;;;;;15.53;11.20;;;13.80;88.30;;;;;;4923314;29;20992;-80
2022/04/29 05:11:50;;;;;;;14.10;10.43;;;13.60;88.70;;;;;;4919627;29;20505;-83
2022/04/29 05:14:32;;;;;;;13.30;10.00;;;13.50;89.60;;;;;;4928156;29;20469;-85
2022/04/29 05:16:58;;;;;;;15.60;10.47;;;13.60;89.90;;;;;;4925723;29;20488;-87
2022/04/29 05:19:25;;;;;;;15.73;11.27;;;13.70;89.30;;;;;;4921698;29;20565;-84
2022/04/29 05:21:52;;;;;;;11.03;9.53;;;13.60;89.40;;;;;;4916506;29;20486;-84
2022/04/29 05:24:19;;;;;;;12.17;10.00;;;13.60;89.40;;;;;;4920200;29;20604;-82
2022/04/29 05:26:51;;;;;;;10.90;9.70;;;13.50;89.60;;;;;;4923495;29;21012;-84
2022/04/29 05:29:17;;;;;;;14.20;10.10;;;13.70;90.00;;;;;;4921161;29;20464;-85
2022/04/29 05:31:45;;;;;;;13.37;10.50;;;13.80;89.10;;;;;;4918553;29;20541;-85
2022/04/29 05:34:11;;;;;;;14.00;11.13;;;13.90;89.80;;;;;;4922100;29;20463;-84
2022/04/29 05:36:38;;;;;;;16.33;11.97;;;13.80;90.00;;;;;;4915967;29;20470;-81
2022/04/29 05:44:37;;;;;;;13.10;11.43;;;13.60;90.20;;;;;;4916022;29;20806;-82
2022/04/29 05:47:04;;;;;;;15.33;11.77;;;13.80;89.70;;;;;;4910793;29;20942;-83
2022/04/29 05:49:31;;;;;;;13.10;10.50;;;13.80;88.50;;;;;;4911796;29;20654;-83
2022/04/29 05:52:05;;;;;;;13.77;10.50;;;13.80;88.30;;;;;;4914853;29;20547;-82
2022/04/29 05:54:32;;;;;;;17.73;12.27;;;13.70;88.70;;;;;;4919752;29;20453;-84
2022/04/29 05:57:00;;;;;;;16.10;11.53;;;13.80;88.60;;;;;;4913730;29;20463;-86
2022/04/29 05:59:28;;;;;;;16.97;13.23;;;13.70;89.60;;;;;;4913027;29;20487;-84
2022/04/29 06:01:58;;;;;;;17.13;11.07;;;13.60;90.00;;;;;;4913226;29;20468;-84
2022/04/29 06:04:26;;;;;;;16.37;11.17;;;13.50;90.00;;;;;;4924831;29;20471;-83
2022/04/29 06:06:52;;;;;;;19.53;11.67;;;13.50;90.20;;;;;;4929702;29;20582;-86
2022/04/29 06:09:22;;;;;;;14.07;11.60;;;13.60;90.50;;;;;;4942527;29;20467;-84
2022/04/29 06:11:49;;;;;;;14.43;11.20;;;14.00;90.10;;;;;;4928306;29;20474;-85
2022/04/29 06:14:15;;;;;;;23.30;15.80;;;13.80;88.80;;;;;;4928369;29;20530;-83
2022/04/29 06:16:43;;;;;;;15.50;12.50;;;14.10;88.00;;;;;;4931209;29;20721;-86
2022/04/29 06:19:12;;;;;;;15.87;12.30;;;14.30;87.10;;;;;;4927591;29;20490;-86
2022/04/29 06:21:43;;;;;;;17.40;12.83;;;14.20;88.00;;;;;;4912046;29;20478;-82
2022/04/29 06:24:09;;;;;;;16.23;12.30;;;14.20;88.80;;;;;;4911514;29;20452;-82
2022/04/29 06:26:36;;;;;;;17.30;12.60;;;14.10;89.40;;;;;;4912230;29;20476;-82
2022/04/29 06:29:04;;;;;;;15.60;12.07;;;13.90;89.50;;;;;;4916093;29;21018;-82
2022/04/29 06:31:31;;;;;;;18.43;12.93;;;13.80;89.80;;;;;;4912042;29;20479;-81
2022/04/29 06:33:57;;;;;;;16.33;12.13;;;13.80;90.10;;;;;;4912922;29;20454;-82
2022/04/29 06:36:24;;;;;;;14.37;12.20;;;13.70;89.90;;;;;;4913473;29;20470;-81
2022/04/29 06:38:51;;;;;;;17.23;11.63;;;13.80;90.40;;;;;;4913233;29;20473;-83
2022/04/29 06:41:17;;;;;;;17.83;13.13;;;14.00;90.00;;;;;;4913948;29;20484;-83
2022/04/29 06:43:48;;;;;;;15.23;11.13;;;14.00;89.40;;;;;;4915741;29;20480;-83
2022/04/29 06:46:15;;;;;;;16.63;13.27;;;14.20;88.60;;;;;;4918734;29;20488;-82
2022/04/29 06:48:42;;;;;;;16.70;12.30;;;14.20;88.20;;;;;;4921819;29;20454;-83
2022/04/29 06:51:09;;;;;;;15.73;12.07;;;14.30;88.20;;;;;;4920132;29;20549;-85
2022/04/29 06:53:40;;;;;;;14.73;12.20;;;14.10;88.30;;;;;;4919950;29;20581;-82
2022/04/29 06:56:09;;;;;;;15.60;12.10;;;14.10;88.10;;;;;;4919462;29;20506;-85
2022/04/29 06:58:35;;;;;;;13.93;11.80;;;14.10;88.50;;;;;;4920993;29;20498;-86
2022/04/29 07:01:02;;;;;;;13.80;12.30;;;14.50;89.30;;;;;;4939974;29;20924;-84
2022/04/29 07:03:29;;;;;;;16.77;13.17;;;14.80;88.00;;;;;;4921552;29;20450;-84
2022/04/29 07:05:59;;;;;;;19.23;13.53;;;14.80;88.30;;;;;;4920415;29;20465;-86
2022/04/29 07:08:26;;;;;;;18.63;13.43;;;14.70;88.40;;;;;;4919846;29;20491;-83
2022/04/29 07:10:53;;;;;;;13.93;11.97;;;14.60;88.40;;;;;;4919508;29;21002;-83
2022/04/29 07:13:20;;;;;;;15.17;13.60;;;14.60;88.70;;;;;;4918874;29;20462;-84
2022/04/29 07:15:48;;;;;;;16.67;12.60;;;14.60;88.00;;;;;;4917995;29;20466;-84
2022/04/29 07:18:16;;;;;;;13.90;12.30;;;14.90;87.50;;;;;;4919501;29;22047;-87
2022/04/29 07:20:43;;;;;;;14.13;12.00;;;15.10;84.90;;;;;;4920504;29;20482;-87
2022/04/29 07:23:10;;;;;;;17.27;12.33;;;15.20;85.70;;;;;;4921770;29;20459;-82
2022/04/29 07:25:37;;;;;;;14.90;12.60;;;15.00;85.50;;;;;;4917260;29;20462;-85
2022/04/29 07:28:04;;;;;;;14.87;13.07;;;15.00;87.00;;;;;;4918539;29;20480;-85
2022/04/29 07:30:31;;;;;;;13.70;12.03;;;14.90;86.50;;;;;;4918436;29;20557;-85
2022/04/29 07:32:58;;;;;;;18.03;12.73;;;14.90;85.70;;;;;;4933476;29;20460;-83
2022/04/29 07:43:43;;;;;;;14.50;11.60;;;15.60;80.50;;;;;;4919924;29;20477;-81
2022/04/29 07:46:10;;;;;;;17.17;11.70;;;15.90;79.40;;;;;;4930730;29;20466;-83
2022/04/29 07:48:38;;;;;;;14.93;10.93;;;16.30;78.30;;;;;;4919771;29;20685;-83
2022/04/29 07:51:06;;;;;;;13.73;12.33;;;16.60;76.70;;;;;;4919726;29;20866;-82
2022/04/29 07:53:34;;;;;;;14.60;11.70;;;16.50;76.10;;;;;;4919245;29;20705;-83
2022/04/29 07:56:01;;;;;;;12.73;10.73;;;16.40;76.40;;;;;;4917433;29;20496;-83
2022/04/29 07:58:31;;;;;;;16.03;11.27;;;16.60;74.60;;;;;;4931478;29;20466;-84
2022/04/29 08:00:58;;;;;;;15.37;12.10;;;16.30;74.10;;;;;;4931099;29;20508;-86
2022/04/29 08:03:34;;;;;;;17.07;11.70;;;16.70;74.40;;;;;;4911253;29;20462;-83
2022/04/29 08:06:02;;;;;;;16.60;12.30;;;17.20;71.40;;;;;;4929579;29;20495;-82
2022/04/29 08:08:29;;;;;;;13.77;12.23;;;17.10;70.40;;;;;;4911460;29;20483;-84
2022/04/29 08:10:56;;;;;;;14.50;12.17;;;17.10;70.30;;;;;;4916239;29;20496;-84
2022/04/29 08:13:26;;;;;;;15.50;11.37;;;17.50;70.60;;;;;;4913533;29;20458;-84
2022/04/29 08:15:53;;;;;;;18.13;13.07;;;18.10;67.60;;;;;;4916535;29;20463;-84
2022/04/29 08:18:20;;;;;;;15.60;11.87;;;17.90;66.20;;;;;;4931391;29;21979;-83
2022/04/29 08:20:47;;;;;;;14.03;11.77;;;17.90;66.90;;;;;;4916102;29;20505;-85
2022/04/29 08:23:16;;;;;;;15.20;11.47;;;17.80;67.20;;;;;;4914994;29;20518;-84
2022/04/29 08:25:42;;;;;;;20.70;11.80;;;17.60;67.40;;;;;;4916843;29;20446;-83
2022/04/29 08:28:09;;;;;;;13.53;11.90;;;17.50;68.30;;;;;;4915185;29;20893;-84
2022/04/29 08:30:39;;;;;;;11.67;10.47;;;17.30;68.20;;;;;;4916926;29;20559;-80
2022/04/29 08:33:15;;;;;;;15.93;11.77;;;17.10;67.40;;;;;;4922292;29;20450;-83
2022/04/29 08:35:42;;;;;;;12.20;10.50;;;17.10;66.70;;;;;;4921733;29;20462;-85
2022/04/29 08:38:10;;;;;;;12.67;10.20;;;16.90;67.30;;;;;;4924353;29;20581;-86
2022/04/29 08:40:43;;;;;;;13.80;10.10;;;16.80;66.50;;;;;;4936243;29;20501;-84
2022/04/29 08:43:25;;;;;;;16.60;10.97;;;16.70;66.40;;;;;;4910368;29;20475;-85
2022/04/29 08:45:55;;;;;;;13.20;11.03;;;16.60;67.90;;;;;;4921329;29;20443;-85
2022/04/29 08:48:23;;;;;;;16.70;11.20;;;16.50;68.40;;;;;;4918279;29;20984;-84
2022/04/29 08:50:50;;;;;;;15.07;10.33;;;16.30;69.40;;;;;;4915183;29;20494;-86
2022/04/29 08:53:17;;;;;;;10.10;9.10;;;16.40;69.50;;;;;;4914728;29;20970;-82
2022/04/29 08:58:43;;;;;;;14.77;10.70;;;16.60;68.90;;;;;;4920238;29;20458;-84
2022/04/29 09:01:16;;;;;;;13.47;11.30;;;16.80;68.10;;;;;;4920490;29;20479;-84
2022/04/29 09:03:44;;;;;;;12.80;11.17;;;17.30;68.00;;;;;;4918879;29;20458;-84
2022/04/29 09:06:12;;;;;;;11.23;9.93;;;18.20;65.50;;;;;;4916708;29;20458;-85
2022/04/29 09:08:47;;;;;;;12.67;10.77;;;18.50;62.90;;;;;;4922948;29;20530;-84
2022/04/29 09:11:23;;;;;;;13.87;10.90;;;18.40;62.20;;;;;;4917206;29;20496;-83
2022/04/29 09:13:50;;;;;;;21.33;11.80;;;18.00;62.90;;;;;;4920537;29;20487;-84
2022/04/29 09:16:17;;;;;;;21.50;12.73;;;17.90;64.50;;;;;;4926262;29;20457;-83
2022/04/29 09:18:57;;;;;;;14.60;13.10;;;17.50;66.40;;;;;;4920283;29;20520;-83
2022/04/29 09:21:26;;;;;;;15.10;12.87;;;17.50;66.20;;;;;;4922060;29;20493;-85
2022/04/29 09:24:06;;;;;;;17.30;13.10;;;17.30;66.90;;;;;;4919204;29;20525;-84
2022/04/29 09:26:38;;;;;;;15.43;13.50;;;17.50;68.10;;;;;;4922947;29;20450;-86
2022/04/29 09:29:14;;;;;;;17.07;13.40;;;17.50;68.00;;;;;;4926319;29;20455;-84
2022/04/29 09:32:01;;;;;;;16.00;13.50;;;17.70;68.80;;;;;;4923624;29;20517;-85
2022/04/29 09:34:50;;;;;;;17.50;14.87;;;18.30;67.30;;;;;;4926333;29;20523;-84
2022/04/29 09:37:26;;;;;;;17.20;13.77;;;18.10;67.90;;;;;;4938307;29;20447;-84
2022/04/29 09:40:05;;;;;;;18.80;14.63;;;18.20;68.50;;;;;;4921303;29;20473;-85
2022/04/29 09:42:45;;;;;;;16.20;14.70;;;18.10;68.90;;;;;;4921890;29;20565;-85
2022/04/29 09:45:22;;;;;;;19.33;14.23;;;18.20;69.10;;;;;;4919683;29;20498;-85
2022/04/29 09:47:58;;;;;;;20.63;14.50;;;18.10;68.30;;;;;;4921350;29;20947;-86
2022/04/29 09:50:49;;;;;;;14.70;12.80;;;17.80;69.50;;;;;;4913073;29;20463;-85
2022/04/29 09:53:20;;;;;;;14.53;12.10;;;18.50;69.30;;;;;;4924171;29;20462;-83
2022/04/29 09:56:09;;;;;;;16.40;12.90;;;19.00;66.50;;;;;;4936289;29;20466;-85
2022/04/29 09:58:36;;;;;;;16.17;13.50;;;20.00;63.90;;;;;;4920385;29;20471;-88
2022/04/29 10:01:06;;;;;;;15.43;13.87;;;20.70;60.70;;;;;;4918217;29;20485;-84
2022/04/29 10:03:35;;;;;;;20.23;15.10;;;20.70;59.40;;;;;;4923574;29;20663;-83
2022/04/29 10:06:05;;;;;;;15.87;13.93;;;20.80;59.80;;;;;;4924805;29;20463;-83
2022/04/29 10:08:32;;;;;;;16.00;13.53;;;20.80;59.60;;;;;;4919303;29;20461;-84
2022/04/29 10:11:00;;;;;;;15.73;14.20;;;20.50;60.00;;;;;;4918976;29;20478;-85
2022/04/29 10:13:27;;;;;;;15.20;13.70;;;20.60;60.00;;;;;;4916937;29;20501;-84
2022/04/29 10:15:59;;;;;;;14.73;13.23;;;20.50;59.40;;;;;;4920657;29;20494;-83
2022/04/29 10:21:19;;;;;;;15.50;13.73;;;20.20;61.20;;;;;;4926472;29;20478;-86
2022/04/29 10:23:49;;;;;;;16.33;13.13;;;20.70;59.50;;;;;;4927806;29;20450;-89
2022/04/29 10:26:21;;;;;;;15.90;14.10;;;20.80;59.60;;;;;;4928786;29;20453;-87
2022/04/29 10:28:52;;;;;;;16.10;14.50;;;20.70;59.50;;;;;;4932041;29;20442;-88
2022/04/29 10:31:27;;;;;;;17.20;14.63;;;20.70;59.70;;;;;;4921034;29;20478;-86
2022/04/29 10:33:54;;;;;;;16.20;14.27;;;21.00;58.50;;;;;;4923855;29;20467;-85
2022/04/29 10:36:26;;;;;;;15.77;14.07;;;20.80;58.60;;;;;;4917171;29;21050;-85
2022/04/29 10:39:02;;;;;;;16.43;14.67;;;20.70;58.90;;;;;;4921537;29;20481;-85
2022/04/29 10:41:30;;;;;;;16.37;14.50;;;21.50;58.10;;;;;;4924510;29;20497;-83
2022/04/29 10:44:00;;;;;;;16.90;15.10;;;21.50;57.40;;;;;;4925304;29;20470;-85
2022/04/29 10:46:35;;;;;;;16.40;14.37;;;21.00;58.10;;;;;;4938931;29;20482;-85
2022/04/29 10:49:24;;;;;;;16.80;15.10;;;20.30;59.20;;;;;;4923816;29;20449;-83
2022/04/29 10:52:00;;;;;;;19.37;17.30;;;19.90;61.60;;;;;;4924244;29;20470;-86
2022/04/29 10:54:33;;;;;;;19.60;17.80;;;19.80;63.70;;;;;;4909203;29;20470;-84
2022/04/29 10:57:08;;;;;;;22.43;18.30;;;19.90;64.40;;;;;;4916807;29;20956;-85
2022/04/29 10:59:57;;;;;;;19.83;17.93;;;19.80;65.90;;;;;;4925196;29;20510;-85
2022/04/29 11:02:32;;;;;;;21.53;19.23;;;19.70;66.30;;;;;;4919359;29;21086;-86
2022/04/29 11:05:00;;;;;;;20.87;18.27;;;19.80;67.00;;;;;;4908079;29;20458;-84
2022/04/29 11:07:44;;;;;;;20.87;18.40;;;19.90;66.60;;;;;;4898940;29;20454;-85
2022/04/29 11:10:16;;;;;;;21.57;17.07;;;19.90;66.70;;;;;;4924130;29;20558;-85
2022/04/29 11:13:03;;;;;;;22.83;18.53;;;19.70;66.40;;;;;;4921459;29;20455;-84
2022/04/29 11:15:50;;;;;;;30.03;18.50;;;19.90;66.10;;;;;;4920092;29;20466;-84
2022/04/29 11:18:26;;;;;;;18.50;16.80;;;20.10;65.00;;;;;;4918185;29;20458;-85
2022/04/29 11:20:59;;;;;;;20.17;16.77;;;20.50;64.80;;;;;;4919628;29;20496;-85
2022/04/29 11:26:17;;;;;;;19.83;16.33;;;21.10;60.40;;;;;;4921051;29;20473;-85
2022/04/29 11:28:44;;;;;;;22.77;16.53;;;20.60;61.10;;;;;;4919915;29;20461;-86
2022/04/29 11:31:11;;;;;;;20.97;16.10;;;20.50;60.50;;;;;;4921917;29;20490;-85
2022/04/29 11:33:38;;;;;;;16.23;14.53;;;20.30;60.40;;;;;;4919631;29;20503;-85
2022/04/29 11:36:09;;;;;;;21.00;15.47;;;20.20;60.80;;;;;;4919554;29;20543;-84
2022/04/29 11:38:44;;;;;;;16.20;14.80;;;20.20;60.80;;;;;;4918032;29;20475;-85
2022/04/29 11:41:18;;;;;;;16.93;13.87;;;20.40;60.50;;;;;;4920010;29;20600;-84
2022/04/29 11:43:48;;;;;;;16.10;14.50;;;20.40;60.60;;;;;;4931047;29;21660;-86
2022/04/29 11:46:15;;;;;;;16.77;13.50;;;20.50;60.90;;;;;;4916911;29;20478;-87
2022/04/29 11:48:52;;;;;;;14.47;13.07;;;21.40;58.90;;;;;;4918926;29;20479;-84
2022/04/29 11:51:20;;;;;;;14.33;11.87;;;21.50;57.50;;;;;;4932755;29;20494;-84
2022/04/29 11:54:00;;;;;;;16.57;13.43;;;21.70;56.80;;;;;;4913714;29;20474;-85
2022/04/29 11:56:35;;;;;;;15.50;14.00;;;22.60;54.30;;;;;;4914957;29;20471;-86
2022/04/29 11:59:06;;;;;;;16.57;14.87;;;22.30;54.90;;;;;;4916080;29;20458;-84
2022/04/29 12:01:34;;;;;;;16.07;12.27;;;22.00;54.50;;;;;;4917435;29;20485;-83
2022/04/29 12:04:01;;;;;;;14.33;12.77;;;21.80;56.00;;;;;;4916883;29;20450;-85
2022/04/29 12:06:28;;;;;;;14.70;13.23;;;22.20;55.30;;;;;;4917049;29;20466;-85
2022/04/29 12:08:55;;;;;;;14.13;12.50;;;22.20;55.00;;;;;;4918943;29;20525;-83
2022/04/29 12:11:28;;;;;;;14.00;12.60;;;22.30;55.50;;;;;;4923897;29;20488;-87
2022/04/29 12:13:55;;;;;;;14.40;12.43;;;22.70;54.40;;;;;;4928529;29;20442;-84
2022/04/29 12:16:22;;;;;;;13.67;11.77;;;22.40;54.90;;;;;;4931575;29;20448;-85
2022/04/29 12:18:52;;;;;;;14.33;12.70;;;22.50;55.30;;;;;;4929284;29;20434;-87
2022/04/29 12:21:29;;;;;;;15.80;14.00;;;22.50;54.70;;;;;;4927339;29;20495;-87
2022/04/29 12:23:56;;;;;;;13.20;11.80;;;22.20;55.20;;;;;;4926394;29;20547;-83
2022/04/29 12:26:26;;;;;;;16.13;12.63;;;22.20;55.10;;;;;;4925620;29;20469;-81
2022/04/29 12:28:55;;;;;;;13.77;12.33;;;22.60;54.30;;;;;;4927573;29;20450;-84
2022/04/29 12:37:06;;;;;;;17.77;12.63;;;21.70;54.40;;;;;;4932308;29;20454;-85
2022/04/29 12:39:35;;;;;;;13.57;11.00;;;21.30;54.80;;;;;;4931463;29;20442;-84
2022/04/29 12:42:08;;;;;;;12.03;10.80;;;21.30;55.50;;;;;;4931477;29;20523;-85
2022/04/29 12:45:04;;;;;;;14.30;12.20;;;21.60;55.10;;;;;;4931302;29;20466;-84
2022/04/29 12:47:50;;;;;;;12.70;11.30;;;21.40;54.90;;;;;;4932236;29;20485;-85
2022/04/29 12:50:18;;;;;;;13.13;10.73;;;21.30;55.00;;;;;;4938456;23;20428;-86
2022/04/29 12:53:15;;;;;;;14.63;11.23;;;21.30;55.00;;;;;;4928824;29;20477;-89
2022/04/29 12:55:46;;;;;;;12.77;10.30;;;21.30;55.00;;;;;;4931126;29;20449;-87
2022/04/29 12:58:17;;;;;;;12.87;11.43;;;21.50;54.10;;;;;;4916057;29;20474;-86
2022/04/29 13:01:06;;;;;;;14.30;11.40;;;21.50;53.40;;;;;;4914450;29;20530;-86
2022/04/29 13:03:36;;;;;;;12.07;10.63;;;21.20;54.10;;;;;;4916231;29;20451;-84
2022/04/29 13:06:07;;;;;;;11.50;10.30;;;20.80;54.30;;;;;;4912731;29;20475;-87
2022/04/29 13:08:38;;;;;;;11.67;10.47;;;20.70;54.70;;;;;;4916809;29;20461;-84
2022/04/29 13:11:15;;;;;;;11.90;10.03;;;20.40;54.90;;;;;;4912779;29;20494;-85